• Join FlightAware (Why Join?)
  • Login
  • US Flag 
09:05PM EDT


 

Airport Tracker/Info


-or-


 

Live Flight TrackerFlight Track Log ✈ CPZ5805 ✈ 05-May-2013 ✈ KMSP - KPIT

Flight Track Log - Related Links

Times and Time Zones

All times are in EDT time to prevent confusion due to time zone crossing. See the CPZ5805 flight status page for this flight to view local times or setup timezone preferences in your user account.

Time Position Orientation Groundspeed Altitude Reporting Facility
EDT Latitude Longitude Course Direction KTS MPH feet Rate Location/Type
11:22AM 44.9000 -93.2500 117° Southeast 163 188 2,100  Level Minneapolis TRACON
11:22AM 44.9350 -93.2450 North 172 198 2,900 1,620 Climbing Minneapolis Center
11:23AM 44.9928 -93.2203 17° North 240 276 4,900 2,460 Climbing Minneapolis Center
11:24AM 44.7318 -92.6522 113° Southeast  Level Estimated
11:24AM 44.9692 -93.1264 110° East 262 302 8,100  Level Minneapolis Center
11:25AM 44.6712 -92.5269 124° Southeast  Level FlightAware Approximate
11:25AM 44.9281 -93.0311 121° Southeast 280 322 10,800  Level Minneapolis Center
11:26AM 44.6333 -92.3850 90° East  Level Estimated
11:26AM 44.8731 -92.8953 120° Southeast 335 386 13,200  Level Minneapolis Center
11:27AM 44.5952 -92.2434 117° Southeast  Level Estimated
11:27AM 44.8250 -92.7758 120° Southeast 348 400 15,500  Level Minneapolis Center
11:28AM 44.7731 -92.6475 120° Southeast 374 430 17,100 1,620 Climbing Minneapolis Center
11:29AM 44.7194 -92.5150 120° Southeast 387 445 18,900 1,800 Climbing Minneapolis Center
11:30AM 44.6639 -92.3797 120° Southeast 394 453 20,900 1,740 Climbing Minneapolis Center
11:32AM 44.6081 -92.2411 119° Southeast 402 463 22,500 1,440 Climbing Minneapolis Center
11:33AM 44.5567 -92.0939 116° Southeast 417 480 23,900 1,320 Climbing Minneapolis Center
11:34AM 44.5039 -91.9431 116° Southeast 430 495 25,300 1,380 Climbing Minneapolis Center
11:35AM 44.4394 -91.7614 116° Southeast 436 502 26,800 1,200 Climbing Minneapolis Center
11:36AM 44.3842 -91.6094 117° Southeast 440 506 27,800 840 Climbing Minneapolis Center
11:37AM 44.3283 -91.4536 117° Southeast 446 513 28,600 840 Climbing Minneapolis Center
11:38AM 44.2725 -91.2989 117° Southeast 449 517 29,600 840 Climbing Minneapolis Center
11:39AM 44.2183 -91.1486 117° Southeast 450 518 30,400 840 Climbing Minneapolis Center
11:40AM 44.1606 -90.9936 117° Southeast 453 521 31,400 1,020 Climbing Minneapolis Center
11:41AM 44.0944 -90.8117 117° Southeast 445 512 32,500 900 Climbing Minneapolis Center
11:42AM 44.0397 -90.6611 117° Southeast 440 506 33,300 720 Climbing Minneapolis Center
11:43AM 43.9811 -90.5044 117° Southeast 438 504 34,100 780 Climbing Minneapolis Center
11:44AM 43.9267 -90.3586 117° Southeast 431 496 35,000 420 Climbing Minneapolis Center
11:45AM 43.8722 -90.2144 118° Southeast 421 484 35,000  Level Minneapolis Center
11:46AM 43.8172 -90.0711 118° Southeast 422 486 35,000  Level Minneapolis Center
11:47AM 43.7717 -89.9203 113° Southeast 424 488 35,000  Level Minneapolis Center
11:48AM 43.7314 -89.7364 107° East 428 493 35,000  Level Minneapolis Center
11:49AM 43.6944 -89.5797 108° East 428 493 35,000  Level Minneapolis Center
11:50AM 43.6581 -89.4244 108° East 426 490 35,000  Level Minneapolis Center
11:51AM 43.6208 -89.2672 108° East 428 493 35,000  Level Minneapolis Center
11:52AM 43.6008 -89.1906 110° East 430 495 35,000  Level Chicago Center
11:53AM 43.5583 -89.0089 108° East 427 491 35,000  Level Chicago Center
11:54AM 43.5203 -88.8542 109° East 427 491 35,000  Level Chicago Center
11:55AM 43.4819 -88.7000 109° East 426 490 35,000  Level Chicago Center
11:56AM 43.4425 -88.5406 109° East 430 495 35,000  Level Chicago Center
11:57AM 43.4061 -88.3939 109° East 432 497 35,000  Level Chicago Center
11:58AM 43.3622 -88.2186 109° East 428 493 35,000  Level Chicago Center
11:59AM 43.3233 -88.0642 109° East 428 493 35,000  Level Chicago Center
12:00PM 43.2847 -87.9114 109° East 425 489 35,000  Level Chicago Center
12:01PM 43.2467 -87.7597 109° East 420 483 35,000  Level Chicago Center
12:02PM 43.2081 -87.6072 109° East 422 486 35,000  Level Chicago Center
12:03PM 43.1622 -87.4303 109° East 423 487 35,000  Level Chicago Center
12:04PM 43.1281 -87.2978 109° East 421 484 35,000  Level Chicago Center
12:05PM 43.0892 -87.1478 109° East 422 486 35,000  Level Chicago Center
12:06PM 43.0428 -86.9681 109° East 421 484 35,000  Level Chicago Center
12:07PM 43.0031 -86.8194 110° East 420 483 35,000  Level Chicago Center
12:08PM 42.9633 -86.6706 110° East 420 483 35,000  Level Chicago Center
12:09PM 42.9233 -86.5222 110° East 420 483 35,000  Level Chicago Center
12:10PM 42.8828 -86.3756 111° Southeast 417 480 35,000  Level Chicago Center
12:11PM 42.8433 -86.2286 110° East 418 481 35,000  Level Chicago Center
12:12PM 42.7958 -86.0517 110° East 421 484 35,000  Level Chicago Center
12:13PM 42.7547 -85.9044 111° Southeast 422 486 35,000  Level Chicago Center
12:14PM 42.7144 -85.7575 110° East 420 483 35,000  Level Chicago Center
12:15PM 42.6736 -85.6081 110° East 424 488 35,000  Level Chicago Center
12:16PM 42.6244 -85.4303 111° Southeast 422 486 35,000  Level Chicago Center
12:17PM 42.5814 -85.2800 111° Southeast 428 493 35,000  Level Chicago Center
12:18PM 42.5397 -85.1306 111° Southeast 426 490 35,000  Level Chicago Center
12:19PM 42.4972 -84.9817 111° Southeast 426 490 35,000 -540 Level Chicago Center
12:20PM 42.4547 -84.8356 111° Southeast 419 482 34,000 -420 Descending Chicago Center
12:22PM 42.3819 -84.5919 112° Southeast 421 484 34,000  Level Cleveland Center
12:23PM 42.3389 -84.4458 112° Southeast 421 484 34,000  Level Cleveland Center
12:24PM 42.2958 -84.3000 112° Southeast 421 484 34,000 -300 Level Cleveland Center
12:25PM 42.2544 -84.1575 111° Southeast 421 484 33,400 -720 Descending Cleveland Center
12:26PM 42.2111 -84.0092 111° Southeast 421 484 32,600 -780 Descending Cleveland Center
12:27PM 42.1675 -83.8639 112° Southeast 421 484 31,900 -960 Descending Cleveland Center
12:28PM 42.1217 -83.7131 112° Southeast 421 484 30,700 -1,200 Descending Cleveland Center
12:29PM 42.0756 -83.5625 112° Southeast 421 484 29,500 -900 Descending Cleveland Center
12:30PM 42.0228 -83.4175 116° Southeast 427 491 29,000 -300 Descending Cleveland Center
12:31PM 41.9472 -83.2689 124° Southeast 432 497 29,000  Level Cleveland Center
12:32PM 41.8814 -83.1461 126° Southeast 438 504 29,000  Level Cleveland Center
12:33PM 41.8092 -83.0097 125° Southeast 444 511 29,000  Level Cleveland Center
12:34PM 41.7389 -82.8761 125° Southeast 444 511 29,000  Level Cleveland Center
12:35PM 41.6728 -82.7347 122° Southeast 444 511 29,000  Level Cleveland Center
12:36PM 41.6114 -82.5689 116° Southeast 444 511 29,000  Level Cleveland Center
12:37PM 41.5575 -82.4200 116° Southeast 449 517 29,000  Level Cleveland Center
12:38PM 41.5014 -82.2689 116° Southeast 449 517 29,000  Level Cleveland Center
12:39PM 41.4472 -82.1233 116° Southeast 449 517 29,000  Level Cleveland Center
12:40PM 41.3947 -81.9892 118° Southeast 449 517 29,000 -600 Level Cleveland Center
12:41PM 41.3383 -81.8219 114° Southeast 449 517 27,900 -1,740 Descending Cleveland Center
12:42PM 41.2833 -81.6828 118° Southeast 443 510 25,600 -2,340 Descending Cleveland Center
12:43PM 41.2283 -81.5439 118° Southeast 431 496 23,300 -2,220 Descending Cleveland Center
12:44PM 41.1794 -81.4136 116° Southeast 408 470 21,200 -2,100 Descending Cleveland Center
12:45PM 41.1303 -81.2917 118° Southeast 387 445 19,100 -2,100 Descending Cleveland Center
12:46PM 41.0831 -81.1725 118° Southeast 370 426 17,100 -1,920 Descending Cleveland Center
12:47PM 41.0375 -81.0567 118° Southeast 362 417 15,300 -1,740 Descending Cleveland Center
12:48PM 40.9964 -80.9464 116° Southeast 351 404 13,700 -1,680 Descending Cleveland Center
12:49PM 40.9550 -80.8414 118° Southeast 335 386 12,000 -1,800 Descending Cleveland Center
12:50PM 40.9008 -80.7561 130° Southeast 324 373 10,200 -1,020 Descending Cleveland Center
12:51PM 40.8175 -80.7039 155° Southeast 309 356 10,000 -420 Descending Cleveland Center
12:52PM 40.7550 -80.6708 158° South 290 334 9,400 -1,200 Descending Cleveland Center
12:53PM 40.6906 -80.6325 156° South 262 302 7,700 -1,740 Descending Cleveland Center
12:54PM 40.6239 -80.5858 152° Southeast 252 290 6,000 -1,560 Descending Cleveland Center
12:55PM 40.5633 -80.5422 151° Southeast 245 282 4,600 -1,020 Descending Cleveland Center
12:56PM 40.5153 -80.5122 155° Southeast 231 266 4,000 -300 Descending Cleveland Center
12:57PM 40.5089 -80.4492 98° East 181 208 4,000  Level Cleveland Center